sensor_id;sensor_type;location;lat;lon;timestamp;P1;durP1;ratioP1;P2;durP2;ratioP2
64543;SDS011;50936;51.660;5.616;2023-06-01T00:02:24;18.30;;;6.78;;
64543;SDS011;50936;51.660;5.616;2023-06-01T00:04:53;18.70;;;7.63;;
64543;SDS011;50936;51.660;5.616;2023-06-01T00:07:20;18.17;;;8.20;;
64543;SDS011;50936;51.660;5.616;2023-06-01T00:09:47;16.73;;;8.18;;
64543;SDS011;50936;51.660;5.616;2023-06-01T00:12:14;18.13;;;8.15;;
64543;SDS011;50936;51.660;5.616;2023-06-01T00:14:41;20.50;;;8.73;;
64543;SDS011;50936;51.660;5.616;2023-06-01T00:17:08;15.65;;;7.85;;
64543;SDS011;50936;51.660;5.616;2023-06-01T00:19:36;20.50;;;8.23;;
64543;SDS011;50936;51.660;5.616;2023-06-01T00:22:05;14.73;;;7.30;;
64543;SDS011;50936;51.660;5.616;2023-06-01T00:24:33;18.05;;;8.02;;
64543;SDS011;50936;51.660;5.616;2023-06-01T00:27:01;17.60;;;8.60;;
64543;SDS011;50936;51.660;5.616;2023-06-01T00:29:29;20.55;;;8.45;;
64543;SDS011;50936;51.660;5.616;2023-06-01T00:31:56;17.15;;;7.13;;
64543;SDS011;50936;51.660;5.616;2023-06-01T00:34:23;17.08;;;8.05;;
64543;SDS011;50936;51.660;5.616;2023-06-01T00:36:51;20.17;;;8.07;;
64543;SDS011;50936;51.660;5.616;2023-06-01T00:39:18;17.33;;;8.40;;
64543;SDS011;50936;51.660;5.616;2023-06-01T00:41:45;16.48;;;8.30;;
64543;SDS011;50936;51.660;5.616;2023-06-01T00:44:12;23.55;;;8.93;;
64543;SDS011;50936;51.660;5.616;2023-06-01T00:46:39;18.05;;;8.32;;
64543;SDS011;50936;51.660;5.616;2023-06-01T00:49:06;18.33;;;8.52;;
64543;SDS011;50936;51.660;5.616;2023-06-01T00:51:34;20.52;;;8.55;;
64543;SDS011;50936;51.660;5.616;2023-06-01T00:54:01;19.92;;;8.95;;
64543;SDS011;50936;51.660;5.616;2023-06-01T00:56:29;21.35;;;9.48;;
64543;SDS011;50936;51.660;5.616;2023-06-01T00:58:59;20.65;;;8.75;;
64543;SDS011;50936;51.660;5.616;2023-06-01T01:01:26;19.95;;;8.55;;
64543;SDS011;50936;51.660;5.616;2023-06-01T01:03:53;19.38;;;9.10;;
64543;SDS011;50936;51.660;5.616;2023-06-01T01:18:42;21.70;;;9.13;;
64543;SDS011;50936;51.660;5.616;2023-06-01T01:21:29;20.25;;;9.63;;
64543;SDS011;50936;51.660;5.616;2023-06-01T01:27:30;20.90;;;9.07;;
64543;SDS011;50936;51.660;5.616;2023-06-01T01:30:32;24.30;;;9.02;;
64543;SDS011;50936;51.660;5.616;2023-06-01T01:33:05;23.70;;;10.00;;
64543;SDS011;50936;51.660;5.616;2023-06-01T01:35:34;24.15;;;11.02;;
64543;SDS011;50936;51.660;5.616;2023-06-01T01:38:03;25.88;;;11.05;;
64543;SDS011;50936;51.660;5.616;2023-06-01T01:40:29;23.50;;;11.10;;
64543;SDS011;50936;51.660;5.616;2023-06-01T01:42:56;21.58;;;10.90;;
64543;SDS011;50936;51.660;5.616;2023-06-01T01:45:25;23.42;;;10.68;;
64543;SDS011;50936;51.660;5.616;2023-06-01T01:50:55;26.13;;;10.93;;
64543;SDS011;50936;51.660;5.616;2023-06-01T01:53:28;23.05;;;10.90;;
64543;SDS011;50936;51.660;5.616;2023-06-01T01:55:57;26.75;;;11.52;;
64543;SDS011;50936;51.660;5.616;2023-06-01T01:58:26;28.05;;;10.93;;
64543;SDS011;50936;51.660;5.616;2023-06-01T02:00:54;27.65;;;11.13;;
64543;SDS011;50936;51.660;5.616;2023-06-01T02:03:24;20.60;;;10.52;;
64543;SDS011;50936;51.660;5.616;2023-06-01T02:05:51;18.00;;;9.77;;
64543;SDS011;50936;51.660;5.616;2023-06-01T02:08:18;25.15;;;10.70;;
64543;SDS011;50936;51.660;5.616;2023-06-01T02:10:46;20.08;;;10.18;;
64543;SDS011;50936;51.660;5.616;2023-06-01T02:13:13;19.45;;;10.13;;
64543;SDS011;50936;51.660;5.616;2023-06-01T02:15:40;24.85;;;10.35;;
64543;SDS011;50936;51.660;5.616;2023-06-01T02:18:06;20.50;;;10.48;;
64543;SDS011;50936;51.660;5.616;2023-06-01T02:20:34;25.83;;;10.15;;
64543;SDS011;50936;51.660;5.616;2023-06-01T02:23:01;18.42;;;9.25;;
64543;SDS011;50936;51.660;5.616;2023-06-01T02:25:27;24.88;;;9.60;;
64543;SDS011;50936;51.660;5.616;2023-06-01T02:27:55;18.13;;;9.13;;
64543;SDS011;50936;51.660;5.616;2023-06-01T02:30:22;18.23;;;8.23;;
64543;SDS011;50936;51.660;5.616;2023-06-01T02:32:49;22.65;;;8.90;;
64543;SDS011;50936;51.660;5.616;2023-06-01T02:35:16;20.55;;;9.27;;
64543;SDS011;50936;51.660;5.616;2023-06-01T02:37:43;20.63;;;8.70;;
64543;SDS011;50936;51.660;5.616;2023-06-01T02:40:11;16.35;;;8.18;;
64543;SDS011;50936;51.660;5.616;2023-06-01T02:42:39;19.75;;;8.68;;
64543;SDS011;50936;51.660;5.616;2023-06-01T02:45:06;19.25;;;8.00;;
64543;SDS011;50936;51.660;5.616;2023-06-01T02:47:35;16.50;;;7.30;;
64543;SDS011;50936;51.660;5.616;2023-06-01T02:50:02;16.70;;;8.07;;
64543;SDS011;50936;51.660;5.616;2023-06-01T02:52:38;18.63;;;8.00;;
64543;SDS011;50936;51.660;5.616;2023-06-01T02:55:05;15.85;;;7.63;;
64543;SDS011;50936;51.660;5.616;2023-06-01T02:58:05;20.27;;;8.32;;
64543;SDS011;50936;51.660;5.616;2023-06-01T03:00:45;18.52;;;7.70;;
64543;SDS011;50936;51.660;5.616;2023-06-01T03:03:13;16.30;;;7.57;;
64543;SDS011;50936;51.660;5.616;2023-06-01T03:05:40;16.13;;;7.03;;
64543;SDS011;50936;51.660;5.616;2023-06-01T03:08:32;14.00;;;6.60;;
64543;SDS011;50936;51.660;5.616;2023-06-01T03:11:02;17.77;;;8.02;;
64543;SDS011;50936;51.660;5.616;2023-06-01T03:13:33;16.35;;;6.75;;
64543;SDS011;50936;51.660;5.616;2023-06-01T03:16:01;16.15;;;7.05;;
64543;SDS011;50936;51.660;5.616;2023-06-01T03:18:28;15.27;;;7.50;;
64543;SDS011;50936;51.660;5.616;2023-06-01T03:20:55;16.60;;;7.90;;
64543;SDS011;50936;51.660;5.616;2023-06-01T03:23:22;15.32;;;7.97;;
64543;SDS011;50936;51.660;5.616;2023-06-01T03:25:49;15.60;;;7.80;;
64543;SDS011;50936;51.660;5.616;2023-06-01T03:28:16;15.60;;;7.78;;
64543;SDS011;50936;51.660;5.616;2023-06-01T03:30:43;15.70;;;7.68;;
64543;SDS011;50936;51.660;5.616;2023-06-01T03:33:12;17.88;;;8.43;;
64543;SDS011;50936;51.660;5.616;2023-06-01T03:35:39;19.35;;;8.60;;
64543;SDS011;50936;51.660;5.616;2023-06-01T03:38:07;17.52;;;7.50;;
64543;SDS011;50936;51.660;5.616;2023-06-01T03:40:33;16.98;;;7.75;;
64543;SDS011;50936;51.660;5.616;2023-06-01T03:43:01;16.45;;;7.38;;
64543;SDS011;50936;51.660;5.616;2023-06-01T03:45:29;17.85;;;7.45;;
64543;SDS011;50936;51.660;5.616;2023-06-01T03:47:56;17.73;;;7.40;;
64543;SDS011;50936;51.660;5.616;2023-06-01T03:50:23;19.02;;;8.13;;
64543;SDS011;50936;51.660;5.616;2023-06-01T03:52:52;15.48;;;7.30;;
64543;SDS011;50936;51.660;5.616;2023-06-01T03:55:19;21.15;;;8.10;;
64543;SDS011;50936;51.660;5.616;2023-06-01T03:58:12;18.17;;;8.52;;
64543;SDS011;50936;51.660;5.616;2023-06-01T04:00:39;17.48;;;7.97;;
64543;SDS011;50936;51.660;5.616;2023-06-01T04:03:07;25.55;;;10.07;;
64543;SDS011;50936;51.660;5.616;2023-06-01T04:05:35;15.93;;;8.52;;
64543;SDS011;50936;51.660;5.616;2023-06-01T04:08:03;21.58;;;8.75;;
64543;SDS011;50936;51.660;5.616;2023-06-01T04:10:31;21.42;;;8.95;;
64543;SDS011;50936;51.660;5.616;2023-06-01T04:12:58;19.05;;;8.77;;
64543;SDS011;50936;51.660;5.616;2023-06-01T04:15:27;18.20;;;8.43;;
64543;SDS011;50936;51.660;5.616;2023-06-01T04:17:55;17.70;;;8.40;;
64543;SDS011;50936;51.660;5.616;2023-06-01T04:20:22;17.00;;;8.52;;
64543;SDS011;50936;51.660;5.616;2023-06-01T04:22:50;19.08;;;8.75;;
64543;SDS011;50936;51.660;5.616;2023-06-01T04:25:17;18.10;;;8.55;;
64543;SDS011;50936;51.660;5.616;2023-06-01T04:27:48;21.38;;;9.23;;
64543;SDS011;50936;51.660;5.616;2023-06-01T04:30:23;15.98;;;8.38;;
64543;SDS011;50936;51.660;5.616;2023-06-01T04:32:50;18.70;;;8.35;;
64543;SDS011;50936;51.660;5.616;2023-06-01T04:35:20;23.48;;;9.20;;
64543;SDS011;50936;51.660;5.616;2023-06-01T04:37:51;17.15;;;8.43;;
64543;SDS011;50936;51.660;5.616;2023-06-01T04:40:18;20.70;;;9.10;;
64543;SDS011;50936;51.660;5.616;2023-06-01T04:42:44;17.55;;;8.07;;
64543;SDS011;50936;51.660;5.616;2023-06-01T04:47:52;15.77;;;8.82;;
64543;SDS011;50936;51.660;5.616;2023-06-01T04:52:51;16.85;;;7.40;;
64543;SDS011;50936;51.660;5.616;2023-06-01T04:55:18;13.82;;;7.30;;
64543;SDS011;50936;51.660;5.616;2023-06-01T04:57:45;17.05;;;8.27;;
64543;SDS011;50936;51.660;5.616;2023-06-01T05:00:13;17.55;;;7.20;;
64543;SDS011;50936;51.660;5.616;2023-06-01T05:02:44;19.35;;;7.57;;
64543;SDS011;50936;51.660;5.616;2023-06-01T05:05:15;15.43;;;6.80;;
64543;SDS011;50936;51.660;5.616;2023-06-01T05:07:44;20.02;;;7.43;;
64543;SDS011;50936;51.660;5.616;2023-06-01T05:10:12;18.95;;;7.70;;
64543;SDS011;50936;51.660;5.616;2023-06-01T05:12:44;18.10;;;8.23;;
64543;SDS011;50936;51.660;5.616;2023-06-01T05:15:13;16.55;;;7.38;;
64543;SDS011;50936;51.660;5.616;2023-06-01T05:17:41;17.80;;;7.40;;
64543;SDS011;50936;51.660;5.616;2023-06-01T05:20:12;15.10;;;7.32;;
64543;SDS011;50936;51.660;5.616;2023-06-01T05:22:41;19.55;;;7.50;;
64543;SDS011;50936;51.660;5.616;2023-06-01T05:25:09;18.52;;;7.93;;
64543;SDS011;50936;51.660;5.616;2023-06-01T05:27:37;16.02;;;7.23;;
64543;SDS011;50936;51.660;5.616;2023-06-01T05:30:04;17.10;;;7.53;;
64543;SDS011;50936;51.660;5.616;2023-06-01T05:32:33;16.25;;;7.32;;
64543;SDS011;50936;51.660;5.616;2023-06-01T05:35:09;17.38;;;7.47;;
64543;SDS011;50936;51.660;5.616;2023-06-01T05:37:37;15.93;;;7.32;;
64543;SDS011;50936;51.660;5.616;2023-06-01T05:40:04;15.63;;;7.07;;
64543;SDS011;50936;51.660;5.616;2023-06-01T05:42:35;18.40;;;7.47;;
64543;SDS011;50936;51.660;5.616;2023-06-01T05:45:03;19.90;;;7.57;;
64543;SDS011;50936;51.660;5.616;2023-06-01T05:47:31;16.80;;;7.20;;
64543;SDS011;50936;51.660;5.616;2023-06-01T05:49:58;14.60;;;6.13;;
64543;SDS011;50936;51.660;5.616;2023-06-01T05:52:25;17.88;;;6.60;;
64543;SDS011;50936;51.660;5.616;2023-06-01T05:54:52;17.38;;;6.30;;
64543;SDS011;50936;51.660;5.616;2023-06-01T05:57:20;15.48;;;7.07;;
64543;SDS011;50936;51.660;5.616;2023-06-01T05:59:47;16.95;;;7.25;;
64543;SDS011;50936;51.660;5.616;2023-06-01T06:02:15;16.27;;;6.95;;
64543;SDS011;50936;51.660;5.616;2023-06-01T06:04:43;15.07;;;6.95;;
64543;SDS011;50936;51.660;5.616;2023-06-01T06:07:10;17.33;;;7.28;;
64543;SDS011;50936;51.660;5.616;2023-06-01T06:09:37;16.73;;;6.95;;
64543;SDS011;50936;51.660;5.616;2023-06-01T06:12:04;17.45;;;7.40;;
64543;SDS011;50936;51.660;5.616;2023-06-01T06:14:32;17.80;;;6.80;;
64543;SDS011;50936;51.660;5.616;2023-06-01T06:17:00;17.15;;;7.28;;
64543;SDS011;50936;51.660;5.616;2023-06-01T06:19:26;11.68;;;6.63;;
64543;SDS011;50936;51.660;5.616;2023-06-01T06:21:53;15.68;;;6.32;;
64543;SDS011;50936;51.660;5.616;2023-06-01T06:24:22;15.00;;;7.47;;
64543;SDS011;50936;51.660;5.616;2023-06-01T06:26:49;16.77;;;7.00;;
64543;SDS011;50936;51.660;5.616;2023-06-01T06:29:15;15.38;;;6.88;;
64543;SDS011;50936;51.660;5.616;2023-06-01T06:31:44;15.35;;;6.30;;
64543;SDS011;50936;51.660;5.616;2023-06-01T06:34:11;17.27;;;7.00;;
64543;SDS011;50936;51.660;5.616;2023-06-01T06:36:39;16.40;;;6.97;;
64543;SDS011;50936;51.660;5.616;2023-06-01T06:39:06;14.82;;;7.13;;
64543;SDS011;50936;51.660;5.616;2023-06-01T06:41:33;13.98;;;6.95;;
64543;SDS011;50936;51.660;5.616;2023-06-01T06:44:00;13.18;;;5.82;;
64543;SDS011;50936;51.660;5.616;2023-06-01T06:46:27;13.15;;;6.53;;
64543;SDS011;50936;51.660;5.616;2023-06-01T06:48:54;12.32;;;6.00;;
64543;SDS011;50936;51.660;5.616;2023-06-01T06:51:21;16.63;;;7.20;;
64543;SDS011;50936;51.660;5.616;2023-06-01T06:53:48;14.70;;;5.85;;
64543;SDS011;50936;51.660;5.616;2023-06-01T06:56:16;17.33;;;6.85;;
64543;SDS011;50936;51.660;5.616;2023-06-01T06:58:43;16.20;;;6.38;;
64543;SDS011;50936;51.660;5.616;2023-06-01T07:01:29;13.68;;;7.07;;
64543;SDS011;50936;51.660;5.616;2023-06-01T07:03:56;17.85;;;7.15;;
64543;SDS011;50936;51.660;5.616;2023-06-01T07:06:23;14.90;;;6.97;;
64543;SDS011;50936;51.660;5.616;2023-06-01T07:08:50;16.02;;;6.97;;
64543;SDS011;50936;51.660;5.616;2023-06-01T07:11:17;17.05;;;8.05;;
64543;SDS011;50936;51.660;5.616;2023-06-01T07:13:45;13.73;;;6.38;;
64543;SDS011;50936;51.660;5.616;2023-06-01T07:16:12;18.13;;;6.85;;
64543;SDS011;50936;51.660;5.616;2023-06-01T07:18:39;17.05;;;6.88;;
64543;SDS011;50936;51.660;5.616;2023-06-01T07:21:06;16.52;;;6.72;;
64543;SDS011;50936;51.660;5.616;2023-06-01T07:23:33;14.13;;;6.78;;
64543;SDS011;50936;51.660;5.616;2023-06-01T07:26:00;13.25;;;6.85;;
64543;SDS011;50936;51.660;5.616;2023-06-01T07:28:27;18.27;;;7.03;;
64543;SDS011;50936;51.660;5.616;2023-06-01T07:30:54;13.13;;;6.60;;
64543;SDS011;50936;51.660;5.616;2023-06-01T07:33:22;15.95;;;7.22;;
64543;SDS011;50936;51.660;5.616;2023-06-01T07:35:49;16.83;;;6.55;;
64543;SDS011;50936;51.660;5.616;2023-06-01T07:38:19;17.75;;;7.32;;
64543;SDS011;50936;51.660;5.616;2023-06-01T07:40:46;15.52;;;7.35;;
64543;SDS011;50936;51.660;5.616;2023-06-01T07:43:13;16.48;;;7.25;;
64543;SDS011;50936;51.660;5.616;2023-06-01T07:45:40;16.67;;;7.30;;
64543;SDS011;50936;51.660;5.616;2023-06-01T07:48:07;15.35;;;6.95;;
64543;SDS011;50936;51.660;5.616;2023-06-01T07:50:36;11.93;;;6.85;;
64543;SDS011;50936;51.660;5.616;2023-06-01T07:53:03;13.93;;;7.35;;
64543;SDS011;50936;51.660;5.616;2023-06-01T07:55:30;14.20;;;7.50;;
64543;SDS011;50936;51.660;5.616;2023-06-01T07:57:57;15.52;;;7.95;;
64543;SDS011;50936;51.660;5.616;2023-06-01T08:00:24;14.63;;;7.72;;
64543;SDS011;50936;51.660;5.616;2023-06-01T08:02:52;13.85;;;7.00;;
64543;SDS011;50936;51.660;5.616;2023-06-01T08:05:19;11.93;;;6.88;;
64543;SDS011;50936;51.660;5.616;2023-06-01T08:07:46;16.30;;;7.40;;
64543;SDS011;50936;51.660;5.616;2023-06-01T08:10:13;15.13;;;7.53;;
64543;SDS011;50936;51.660;5.616;2023-06-01T08:12:40;12.95;;;7.60;;
64543;SDS011;50936;51.660;5.616;2023-06-01T08:15:09;17.77;;;8.27;;
64543;SDS011;50936;51.660;5.616;2023-06-01T08:17:38;13.63;;;6.72;;
64543;SDS011;50936;51.660;5.616;2023-06-01T08:20:05;15.43;;;7.60;;
64543;SDS011;50936;51.660;5.616;2023-06-01T08:22:37;15.90;;;7.85;;
64543;SDS011;50936;51.660;5.616;2023-06-01T08:25:04;15.45;;;7.97;;
64543;SDS011;50936;51.660;5.616;2023-06-01T08:27:32;17.63;;;7.47;;
64543;SDS011;50936;51.660;5.616;2023-06-01T08:29:58;14.85;;;8.07;;
64543;SDS011;50936;51.660;5.616;2023-06-01T08:32:25;13.60;;;6.75;;
64543;SDS011;50936;51.660;5.616;2023-06-01T08:34:52;11.55;;;6.32;;
64543;SDS011;50936;51.660;5.616;2023-06-01T08:37:19;15.25;;;7.40;;
64543;SDS011;50936;51.660;5.616;2023-06-01T08:39:46;13.82;;;7.15;;
64543;SDS011;50936;51.660;5.616;2023-06-01T08:42:15;14.85;;;7.30;;
64543;SDS011;50936;51.660;5.616;2023-06-01T08:44:53;15.88;;;7.43;;
64543;SDS011;50936;51.660;5.616;2023-06-01T08:47:24;22.05;;;7.95;;
64543;SDS011;50936;51.660;5.616;2023-06-01T08:49:54;11.85;;;7.22;;
64543;SDS011;50936;51.660;5.616;2023-06-01T08:52:25;15.10;;;7.30;;
64543;SDS011;50936;51.660;5.616;2023-06-01T08:54:55;13.63;;;6.50;;
64543;SDS011;50936;51.660;5.616;2023-06-01T08:57:29;15.20;;;7.30;;
64543;SDS011;50936;51.660;5.616;2023-06-01T08:59:59;18.42;;;6.95;;
64543;SDS011;50936;51.660;5.616;2023-06-01T09:02:26;15.90;;;7.15;;
64543;SDS011;50936;51.660;5.616;2023-06-01T09:04:54;12.80;;;7.75;;
64543;SDS011;50936;51.660;5.616;2023-06-01T09:07:22;13.00;;;6.57;;
64543;SDS011;50936;51.660;5.616;2023-06-01T09:09:49;13.48;;;7.20;;
64543;SDS011;50936;51.660;5.616;2023-06-01T09:14:50;17.85;;;6.97;;
64543;SDS011;50936;51.660;5.616;2023-06-01T09:17:43;17.33;;;7.85;;
64543;SDS011;50936;51.660;5.616;2023-06-01T09:20:21;14.18;;;7.55;;
64543;SDS011;50936;51.660;5.616;2023-06-01T09:22:54;18.85;;;6.55;;
64543;SDS011;50936;51.660;5.616;2023-06-01T09:25:26;14.10;;;7.15;;
64543;SDS011;50936;51.660;5.616;2023-06-01T09:27:56;14.35;;;7.00;;
64543;SDS011;50936;51.660;5.616;2023-06-01T09:30:26;15.45;;;7.68;;
64543;SDS011;50936;51.660;5.616;2023-06-01T09:33:09;14.30;;;7.30;;
64543;SDS011;50936;51.660;5.616;2023-06-01T09:38:11;11.98;;;6.57;;
64543;SDS011;50936;51.660;5.616;2023-06-01T09:41:00;12.35;;;6.80;;
64543;SDS011;50936;51.660;5.616;2023-06-01T09:43:33;13.45;;;6.85;;
64543;SDS011;50936;51.660;5.616;2023-06-01T09:46:07;16.35;;;6.95;;
64543;SDS011;50936;51.660;5.616;2023-06-01T09:48:35;14.30;;;7.22;;
